QTR8727 OMDW-OTHH
Flight info
| Callsign | QTR8727 |
|---|---|
| Flight time | N/A |
| Altitude | 22000 |
| Route | NABIX P699 OXARI M430 TOSNA |
| Aircraft | B77L/H-SDE1E2E3FGHIJ2J3J4J5M1RWXY/LB1D1 |
Departure
| Time | 2026-04-23 05:12 |
|---|---|
| Airport | Al Maktoum International Airport (OMDW) |
Arrival
| Time | N/A |
|---|---|
| Airport | Hamad International Airport (OTHH) |
| Time | Latitude | Longitude | Altitude | Speed | Heading |
|---|---|---|---|---|---|
| 2026-04-23 04:50 | 24.88880 | 55.15276 | 126 ft | 0 kts | 301° |
| 2026-04-23 04:59 | 24.88877 | 55.15281 | 126 ft | 2 kts | 301° |
| 2026-04-23 04:59 | 24.88869 | 55.15295 | 126 ft | 2 kts | 301° |
| 2026-04-23 05:00 | 24.88861 | 55.15310 | 127 ft | 2 kts | 301° |
| 2026-04-23 05:00 | 24.88854 | 55.15324 | 127 ft | 2 kts | 301° |
| 2026-04-23 05:00 | 24.88846 | 55.15338 | 127 ft | 2 kts | 301° |
| 2026-04-23 05:00 | 24.88836 | 55.15350 | 127 ft | 2 kts | 335° |
| 2026-04-23 05:01 | 24.88821 | 55.15354 | 128 ft | 2 kts | 5° |
| 2026-04-23 05:01 | 24.88809 | 55.15351 | 128 ft | 0 kts | 30° |
| 2026-04-23 05:01 | 24.88805 | 55.15348 | 128 ft | 0 kts | 31° |
| 2026-04-23 05:03 | 24.88820 | 55.15358 | 128 ft | 4 kts | 31° |
| 2026-04-23 05:03 | 24.88861 | 55.15385 | 127 ft | 9 kts | 31° |
| 2026-04-23 05:03 | 24.88931 | 55.15430 | 126 ft | 13 kts | 30° |
| 2026-04-23 05:04 | 24.89025 | 55.15491 | 124 ft | 17 kts | 31° |
| 2026-04-23 05:04 | 24.89131 | 55.15563 | 125 ft | 17 kts | 31° |
| 2026-04-23 05:04 | 24.89233 | 55.15631 | 124 ft | 16 kts | 31° |
| 2026-04-23 05:04 | 24.89327 | 55.15692 | 124 ft | 14 kts | 31° |
| 2026-04-23 05:05 | 24.89413 | 55.15750 | 124 ft | 13 kts | 31° |
| 2026-04-23 05:05 | 24.89491 | 55.15802 | 124 ft | 10 kts | 32° |
| 2026-04-23 05:05 | 24.89546 | 55.15837 | 124 ft | 8 kts | 21° |
| 2026-04-23 05:05 | 24.89596 | 55.15815 | 124 ft | 8 kts | 306° |
| 2026-04-23 05:06 | 24.89629 | 55.15759 | 124 ft | 10 kts | 302° |
| 2026-04-23 05:06 | 24.89673 | 55.15677 | 124 ft | 14 kts | 300° |
| 2026-04-23 05:06 | 24.89733 | 55.15568 | 122 ft | 17 kts | 301° |
| 2026-04-23 05:06 | 24.89797 | 55.15454 | 120 ft | 17 kts | 301° |
| 2026-04-23 05:07 | 24.89861 | 55.15338 | 118 ft | 17 kts | 301° |
| 2026-04-23 05:07 | 24.89924 | 55.15226 | 118 ft | 16 kts | 300° |
| 2026-04-23 05:07 | 24.89981 | 55.15120 | 117 ft | 15 kts | 301° |
| 2026-04-23 05:07 | 24.90039 | 55.15015 | 115 ft | 16 kts | 301° |
| 2026-04-23 05:08 | 24.90099 | 55.14908 | 113 ft | 16 kts | 301° |
| 2026-04-23 05:08 | 24.90158 | 55.14801 | 111 ft | 16 kts | 301° |
| 2026-04-23 05:08 | 24.90216 | 55.14697 | 110 ft | 15 kts | 301° |
| 2026-04-23 05:08 | 24.90272 | 55.14593 | 109 ft | 15 kts | 300° |
| 2026-04-23 05:09 | 24.90328 | 55.14491 | 108 ft | 15 kts | 301° |
| 2026-04-23 05:09 | 24.90382 | 55.14392 | 108 ft | 14 kts | 302° |
| 2026-04-23 05:09 | 24.90434 | 55.14302 | 109 ft | 13 kts | 302° |
| 2026-04-23 05:09 | 24.90478 | 55.14222 | 110 ft | 11 kts | 301° |
| 2026-04-23 05:10 | 24.90515 | 55.14156 | 111 ft | 8 kts | 301° |
| 2026-04-23 05:10 | 24.90545 | 55.14106 | 113 ft | 7 kts | 311° |
| 2026-04-23 05:10 | 24.90591 | 55.14086 | 114 ft | 7 kts | 7° |
| 2026-04-23 05:10 | 24.90640 | 55.14115 | 115 ft | 9 kts | 42° |
| 2026-04-23 05:11 | 24.90674 | 55.14174 | 114 ft | 9 kts | 74° |
| 2026-04-23 05:11 | 24.90688 | 55.14239 | 115 ft | 7 kts | 90° |
| 2026-04-23 05:11 | 24.90623 | 55.14370 | 112 ft | 44 kts | 121° |
| 2026-04-23 05:11 | 24.90323 | 55.14914 | 111 ft | 120 kts | 121° |
| 2026-04-23 05:12 | 24.89764 | 55.15923 | 140 ft | 182 kts | 122° |
| 2026-04-23 05:12 | 24.89091 | 55.17111 | 769 ft | 189 kts | 119° |
| 2026-04-23 05:12 | 24.88405 | 55.18378 | 1592 ft | 195 kts | 119° |
| 2026-04-23 05:12 | 24.87686 | 55.19694 | 2097 ft | 210 kts | 118° |
| 2026-04-23 05:13 | 24.86924 | 55.21114 | 2656 ft | 223 kts | 119° |
| 2026-04-23 05:13 | 24.86100 | 55.22615 | 3050 ft | 238 kts | 121° |
| 2026-04-23 05:13 | 24.85247 | 55.24143 | 3939 ft | 236 kts | 122° |
| 2026-04-23 05:14 | 24.83498 | 55.27267 | 5421 ft | 247 kts | 123° |
| 2026-04-23 05:14 | 24.82607 | 55.28859 | 6138 ft | 251 kts | 124° |
| 2026-04-23 05:14 | 24.81685 | 55.30510 | 6871 ft | 254 kts | 124° |
| 2026-04-23 05:14 | 24.80765 | 55.32166 | 7580 ft | 257 kts | 123° |
| 2026-04-23 05:15 | 24.79844 | 55.33826 | 8326 ft | 257 kts | 123° |
| 2026-04-23 05:15 | 24.78987 | 55.35367 | 8963 ft | 261 kts | 123° |